Historique des mesures à Cassis (13260), France
Quotidien Résumé Janvier 23, 2018 Unités:  Métrique    US   Métrique/US
« Précédent (Jour)
Suivant (Jour) »
Quotidien Hebdomadaire Mensuel Annuel Période au choix
  Maximum: Minimum: Moyenne:
Température: TemperatureC °C 10.9 °C 12.7 °C
Point de rosée: DewpointC °C 2.9 °C 4.5 °C
Humidité: Humidity % 47 % 54 %
Vitesse du vent: 0 km/h 0 km/h 15.3 km/h
Rafales: 0 km/h - -
Vent:- - WSW
Pression: PressurehPa hPa 1013.8 hPa -
Précipitations: 0.0 mm    
Historical Graphs
 
 
Mesures pour : Janvier 23, 2018
Heure Temperature Point de rosée Pression Vent Vitesse du vent Rafales Humidité Pluie (par heure) Conditions
TemperatureC °C DewpointC °C PressurehPa hPa Calm     Humidity % HourlyPrecipMM mm SoftwareType W/m2
00:12 13.9 °C 6.7 °C 1014.1 hPa WNW 23 km/h 62 km/h 62 % 0.0 mm open2300-1.11 W/m2
01:12 13.8 °C 6.8 °C 1014.8 hPa WNW 23 km/h 23 km/h 63 % 0.0 mm open2300-1.11 W/m2
02:12 13.2 °C 6.9 °C 1013.8 hPa North 26.7 km/h 26.7 km/h 66 % 0.0 mm open2300-1.11 W/m2
03:12 13.2 °C 7.2 °C 1014.1 hPa NNW 37 km/h 37 km/h 67 % 0.0 mm open2300-1.11 W/m2
05:12 12.4 °C 6.0 °C 1014.8 hPa NW 22 km/h 32.3 km/h 65 % 0.0 mm open2300-1.11 W/m2
07:12 11.4 °C 4.8 °C 1014.4 hPa NW 29 km/h 35.2 km/h 64 % 0.0 mm open2300-1.11 W/m2
08:12 11.8 °C 4.7 °C 1016.1 hPa Calm   19.6 km/h 62 % 0.0 mm open2300-1.11 W/m2
09:12 11.8 °C 4.5 °C 1016.1 hPa NNW 22.5 km/h 24.8 km/h 61 % 0.0 mm open2300-1.11 W/m2
10:12 12.3 °C 4.0 °C 1015.8 hPa NW 44.6 km/h 49.2 km/h 57 % 0.0 mm open2300-1.11 W/m2
11:12 13.8 °C 4.4 °C 1017.2 hPa NNW 5.1 km/h 6.4 km/h 53 % 0.0 mm open2300-1.11 W/m2
13:12 14.6 °C 4.6 °C 1017.2 hPa NNE 23.8 km/h 23.8 km/h 51 % 0.0 mm open2300-1.11 W/m2
14:12 15.5 °C 4.8 °C 1017.5 hPa NW 17.4 km/h 27.7 km/h 49 % 0.0 mm open2300-1.11 W/m2
15:12 15.9 °C 4.6 °C 1017.2 hPa NNW 8.9 km/h 14 km/h 47 % 0.0 mm open2300-1.11 W/m2
16:12 16.1 °C 5.1 °C 1018.2 hPa Calm   5.6 km/h 48 % 0.0 mm open2300-1.11 W/m2
17:12 15.2 °C 4.2 °C 1018.2 hPa WNW 34.1 km/h 37.5 km/h 48 % 0.0 mm open2300-1.11 W/m2
19:12 13.9 °C 3.4 °C 1019.5 hPa NNE 2.3 km/h 4.2 km/h 49 % 0.0 mm open2300-1.11 W/m2
20:12 12.6 °C 3.2 °C 1020.5 hPa Calm   13.2 km/h 53 % 0.0 mm open2300-1.11 W/m2
21:12 12.3 °C 3.4 °C 1021.2 hPa Calm     55 % 0.0 mm open2300-1.11 W/m2
22:12 11.2 °C 2.9 °C 1021.6 hPa Calm     57 % 0.0 mm open2300-1.11 W/m2
23:12 10.9 °C 3.2 °C 1021.9 hPa Calm     59 % 0.0 mm open2300-1.11 W/m2
Observations météo à CASSIS
WU-History script by Weather Underground - 1 mb